Time;durP1;ratioP1;P1;durP2;ratioP2;P2;SDS_P1;SDS_P2;PMS_P1;PMS_P2;Temp;Humidity;BMP_temperature;BMP_pressure;BME280_temperature;BME280_humidity;BME280_pressure;Samples;Min_cycle;Max_cycle;Signal;HPM_P1;HPM_P2
2022/08/24 00:00:19;;;;;;;7.97;6.28;;;;;;;13.28;100.00;96070.31;1050605;28;20019;-72
2022/08/24 00:00:50;;;;;;;6.07;5.47;;;;;;;13.19;100.00;96059.50;1039480;28;20025;-71
2022/08/24 00:01:20;;;;;;;8.32;5.72;;;;;;;13.26;100.00;96067.13;1041682;28;20053;-74
2022/08/24 00:01:51;;;;;;;8.45;5.20;;;;;;;13.24;100.00;96074.50;1046452;28;20012;-71
2022/08/24 00:02:22;;;;;;;10.52;5.53;;;;;;;13.24;100.00;96068.44;1044664;28;20074;-70
2022/08/24 00:02:54;;;;;;;8.35;5.90;;;;;;;13.22;100.00;96068.72;1033089;28;20536;-71
2022/08/24 00:03:24;;;;;;;11.95;6.03;;;;;;;13.19;100.00;96070.03;1034137;28;20077;-70
2022/08/24 00:03:56;;;;;;;8.32;6.18;;;;;;;13.16;100.00;96070.56;1042541;28;20676;-71
2022/08/24 00:04:26;;;;;;;7.25;5.72;;;;;;;13.14;100.00;96079.78;1038454;28;20578;-72
2022/08/24 00:04:57;;;;;;;8.48;5.82;;;;;;;13.10;100.00;96065.59;1034111;28;20040;-71
2022/08/24 00:05:27;;;;;;;9.45;5.68;;;;;;;13.07;100.00;96076.66;1029674;28;20536;-71
2022/08/24 00:05:58;;;;;;;7.75;5.35;;;;;;;13.11;100.00;96075.06;1035318;28;20030;-71
2022/08/24 00:06:29;;;;;;;5.68;5.07;;;;;;;13.11;100.00;96078.50;1034165;28;20059;-71
2022/08/24 00:07:00;;;;;;;5.15;4.75;;;;;;;13.10;100.00;96082.19;1046614;28;20103;-71
2022/08/24 00:07:30;;;;;;;6.45;5.53;;;;;;;13.08;100.00;96075.63;1042025;28;20033;-71
2022/08/24 00:08:01;;;;;;;8.70;5.65;;;;;;;13.09;100.00;96082.47;1032572;28;20037;-72
2022/08/24 00:08:32;;;;;;;7.93;5.20;;;;;;;13.03;100.00;96070.38;1033718;28;20100;-71
2022/08/24 00:09:03;;;;;;;8.05;5.32;;;;;;;13.05;100.00;96084.06;1043127;28;20024;-71
2022/08/24 00:09:33;;;;;;;5.95;5.28;;;;;;;13.03;100.00;96075.63;1043789;28;20036;-72
2022/08/24 00:10:05;;;;;;;7.97;5.53;;;;;;;13.00;100.00;96071.69;1046470;28;20094;-72
2022/08/24 00:10:36;;;;;;;8.07;5.40;;;;;;;12.98;100.00;96085.16;1041717;28;20025;-71
2022/08/24 00:11:06;;;;;;;9.88;5.53;;;;;;;13.00;100.00;96071.69;1037853;28;20053;-71
2022/08/24 00:11:37;;;;;;;13.55;5.18;;;;;;;13.04;100.00;96083.25;1038375;28;20088;-72
2022/08/24 00:12:07;;;;;;;10.98;5.90;;;;;;;13.04;100.00;96082.47;1042395;28;20029;-70
2022/08/24 00:12:39;;;;;;;9.98;5.45;;;;;;;12.97;100.00;96075.63;1044485;28;20033;-72
2022/08/24 00:13:09;;;;;;;14.13;5.60;;;;;;;13.00;100.00;96084.88;1035001;28;20014;-72
2022/08/24 00:13:40;;;;;;;7.75;5.45;;;;;;;12.93;100.00;96069.34;1038387;28;20128;-72
2022/08/24 00:14:10;;;;;;;7.90;5.65;;;;;;;13.00;100.00;96076.16;1041819;28;20541;-72
2022/08/24 00:14:41;;;;;;;9.30;5.32;;;;;;;12.93;100.00;96071.19;1042538;28;20489;-71
2022/08/24 00:15:13;;;;;;;7.78;5.43;;;;;;;12.98;100.00;96073.81;1042053;28;20512;-71
2022/08/24 00:15:43;;;;;;;6.70;5.53;;;;;;;12.93;100.00;96066.72;1042322;28;20060;-70
2022/08/24 00:16:14;;;;;;;10.60;5.65;;;;;;;12.96;100.00;96076.72;1038690;28;20041;-72
2022/08/24 00:16:45;;;;;;;12.95;5.90;;;;;;;12.94;100.00;96072.75;1045148;28;20058;-72
2022/08/24 00:17:16;;;;;;;8.57;5.45;;;;;;;12.94;100.00;96073.56;1042192;28;20017;-70
2022/08/24 00:17:46;;;;;;;12.75;5.25;;;;;;;12.89;100.00;96064.88;1040448;28;20665;-72
2022/08/24 00:18:17;;;;;;;6.43;5.40;;;;;;;12.93;100.00;96071.97;1034263;28;20044;-71
2022/08/24 00:18:47;;;;;;;8.23;5.88;;;;;;;12.94;100.00;96073.56;1030270;28;20030;-71
2022/08/24 00:19:18;;;;;;;7.90;5.60;;;;;;;12.96;100.00;96071.44;1037227;28;20034;-71
2022/08/24 00:19:48;;;;;;;6.07;4.93;;;;;;;12.85;100.00;96062.00;1043323;28;20539;-72
2022/08/24 00:20:19;;;;;;;16.00;5.93;;;;;;;12.94;100.00;96065.66;1046571;28;20119;-73
2022/08/24 00:20:50;;;;;;;10.02;5.72;;;;;;;12.95;100.00;96072.50;1042406;28;20656;-71
2022/08/24 00:21:20;;;;;;;5.82;5.25;;;;;;;12.95;100.00;96071.72;1041687;28;20068;-70
2022/08/24 00:21:54;;;;;;;6.63;5.40;;;;;;;12.94;100.00;96072.75;1034161;28;20574;-72
2022/08/24 00:22:24;;;;;;;6.50;5.38;;;;;;;12.90;100.00;96066.47;1042548;28;20021;-72
2022/08/24 00:22:55;;;;;;;6.75;5.25;;;;;;;12.93;100.00;96071.19;1041272;28;20017;-72
2022/08/24 00:23:25;;;;;;;9.55;5.65;;;;;;;12.92;100.00;96070.41;1037953;28;20095;-71
2022/08/24 00:23:56;;;;;;;8.45;5.93;;;;;;;12.93;100.00;96079.09;1042392;28;20495;-71
2022/08/24 00:24:26;;;;;;;7.65;5.43;;;;;;;12.92;100.00;96070.41;1041698;28;20557;-71
2022/08/24 00:24:58;;;;;;;6.95;5.55;;;;;;;12.84;100.00;96060.41;1046713;28;20025;-71
2022/08/24 00:25:28;;;;;;;6.60;5.85;;;;;;;12.87;100.00;96077.53;1050134;28;20246;-71
2022/08/24 00:25:59;;;;;;;7.53;5.93;;;;;;;12.81;100.00;96070.69;1050750;28;20021;-71
2022/08/24 00:26:29;;;;;;;8.73;5.95;;;;;;;12.83;100.00;96074.66;1046449;28;20048;-71
2022/08/24 00:27:00;;;;;;;6.20;5.60;;;;;;;12.83;100.00;96072.00;1046879;28;20020;-71
2022/08/24 00:27:31;;;;;;;6.35;5.50;;;;;;;12.81;100.00;96075.97;1046030;28;20548;-72
2022/08/24 00:28:03;;;;;;;6.65;5.88;;;;;;;12.81;100.00;96078.59;1038470;28;20113;-72
2022/08/24 00:28:33;;;;;;;9.02;6.53;;;;;;;12.78;100.00;96085.22;1042230;28;20092;-72
2022/08/24 00:29:04;;;;;;;11.65;6.50;;;;;;;12.73;100.00;96074.66;1042567;28;20059;-71
2022/08/24 00:29:35;;;;;;;8.80;6.15;;;;;;;12.77;100.00;96078.34;1046708;28;20038;-71
2022/08/24 00:30:08;;;;;;;8.13;6.22;;;;;;;12.77;100.00;96083.59;1038923;28;20064;-71
2022/08/24 00:30:38;;;;;;;8.30;5.78;;;;;;;12.73;100.00;96082.56;1034852;28;20022;-71
2022/08/24 00:31:09;;;;;;;8.05;5.25;;;;;;;12.73;100.00;96077.31;1041934;28;20056;-71
2022/08/24 00:31:40;;;;;;;6.05;5.45;;;;;;;12.70;100.00;96080.47;1042814;28;20035;-71
2022/08/24 00:32:10;;;;;;;8.10;5.60;;;;;;;12.66;100.00;96069.69;1039134;28;20036;-71
2022/08/24 00:32:42;;;;;;;6.10;5.47;;;;;;;12.67;100.00;96073.88;1033143;28;20077;-71
2022/08/24 00:33:12;;;;;;;5.93;5.30;;;;;;;12.68;100.00;96070.22;1035427;28;20793;-71
2022/08/24 00:33:42;;;;;;;10.77;5.68;;;;;;;12.69;100.00;96077.06;1038827;28;20140;-71
2022/08/24 00:34:13;;;;;;;14.43;6.47;;;;;;;12.69;100.00;96078.91;1035040;28;20034;-71
2022/08/24 00:34:43;;;;;;;10.52;5.80;;;;;;;12.68;100.00;96074.69;1037285;28;20034;-72
2022/08/24 00:35:17;;;;;;;11.15;5.68;;;;;;;12.68;100.00;96077.34;1028974;28;20038;-70
2022/08/24 00:35:47;;;;;;;8.00;6.28;;;;;;;12.63;100.00;96072.06;1038958;28;20033;-72
2022/08/24 00:36:20;;;;;;;6.30;5.55;;;;;;;12.68;100.00;96074.69;1038683;28;20029;-72
2022/08/24 00:36:51;;;;;;;7.00;5.35;;;;;;;12.63;100.00;96070.22;1039172;28;20522;-71
2022/08/24 00:37:22;;;;;;;5.95;5.43;;;;;;;12.68;100.00;96077.34;1045593;28;20063;-72
2022/08/24 00:37:52;;;;;;;7.07;5.97;;;;;;;12.68;100.00;96074.69;1044789;28;20055;-72
2022/08/24 00:38:23;;;;;;;6.15;5.55;;;;;;;12.68;100.00;96077.34;1048426;28;20037;-72
2022/08/24 00:38:53;;;;;;;6.13;5.53;;;;;;;12.68;100.00;96078.13;1047237;28;20059;-72
2022/08/24 00:39:24;;;;;;;8.23;5.25;;;;;;;12.68;100.00;96080.75;1034717;28;20388;-71
2022/08/24 00:39:55;;;;;;;7.38;5.72;;;;;;;12.64;100.00;96068.38;1034794;28;20025;-71
2022/08/24 00:40:37;;;;;;;12.02;5.80;;;;;;;12.70;100.00;96075.22;1040979;28;20534;-72
2022/08/24 00:41:07;;;;;;;7.85;5.60;;;;;;;12.69;100.00;96079.69;1042551;28;20661;-71
2022/08/24 00:41:45;;;;;;;9.88;5.47;;;;;;;12.64;100.00;96073.63;1040265;28;20033;-72
2022/08/24 00:42:16;;;;;;;14.05;6.18;;;;;;;12.69;100.00;96078.91;1035176;28;20033;-74
2022/08/24 00:42:46;;;;;;;7.57;6.03;;;;;;;12.61;100.00;96074.16;1042601;28;20123;-71
2022/08/24 00:43:19;;;;;;;26.73;6.25;;;;;;;12.66;100.00;96071.53;1040753;28;20605;-71
2022/08/24 00:43:54;;;;;;;13.30;6.82;;;;;;;12.58;100.00;96070.25;1038355;28;20245;-71
2022/08/24 00:44:25;;;;;;;11.02;6.20;;;;;;;12.63;100.00;96072.84;1035057;28;20033;-70
2022/08/24 00:44:55;;;;;;;10.27;5.65;;;;;;;12.60;100.00;96068.13;1038943;28;20510;-71
2022/08/24 00:45:26;;;;;;;6.38;5.20;;;;;;;12.60;100.00;96067.34;1032530;28;20045;-71
2022/08/24 00:46:12;;;;;;;7.63;5.57;;;;;;;12.61;100.00;96079.44;1043120;28;20028;-71
2022/08/24 00:46:50;;;;;;;6.75;5.68;;;;;;;12.61;100.00;96074.16;1043146;28;20020;-71
2022/08/24 00:47:24;;;;;;;8.13;5.50;;;;;;;12.60;100.00;96069.97;1040571;28;20033;-71
2022/08/24 00:47:59;;;;;;;7.93;5.55;;;;;;;12.61;100.00;96071.53;1043371;28;20098;-70
2022/08/24 00:48:30;;;;;;;8.48;5.57;;;;;;;12.61;100.00;96074.16;1036891;28;20022;-70
2022/08/24 00:49:04;;;;;;;9.45;5.50;;;;;;;12.57;100.00;96066.00;1038312;28;20756;-71
2022/08/24 00:49:38;;;;;;;8.48;5.45;;;;;;;12.58;100.00;96080.00;1038951;28;20040;-71
2022/08/24 00:50:11;;;;;;;8.00;5.20;;;;;;;12.60;100.00;96077.88;1034654;28;20034;-72
2022/08/24 00:50:47;;;;;;;7.93;5.80;;;;;;;12.59;100.00;96071.03;1038025;28;20025;-71
2022/08/24 00:51:30;;;;;;;5.88;4.85;;;;;;;12.53;100.00;96070.25;1037943;28;20330;-71
2022/08/24 00:52:10;;;;;;;6.90;5.28;;;;;;;12.55;100.00;96075.25;1034791;28;20034;-70
2022/08/24 00:52:45;;;;;;;12.43;6.07;;;;;;;12.59;100.00;96081.56;1035629;28;20034;-71
2022/08/24 00:53:25;;;;;;;11.77;5.55;;;;;;;12.56;100.00;96082.09;1038943;28;20084;-72
2022/08/24 00:53:58;;;;;;;7.60;5.72;;;;;;;12.52;100.00;96071.31;1046921;28;20044;-71
2022/08/24 00:54:28;;;;;;;7.85;5.60;;;;;;;12.55;100.00;96085.78;1034662;28;20033;-72
2022/08/24 00:55:35;;;;;;;11.15;5.57;;;;;;;12.54;100.00;96076.28;1039063;28;20041;-71
2022/08/24 00:56:09;;;;;;;10.27;5.43;;;;;;;12.45;100.00;96076.84;1028554;28;20051;-72
2022/08/24 00:56:47;;;;;;;6.38;5.70;;;;;;;12.43;100.00;96073.66;1042815;28;20021;-71
2022/08/24 00:57:19;;;;;;;6.30;5.35;;;;;;;12.38;100.00;96071.06;1038579;28;20017;-71
2022/08/24 00:57:50;;;;;;;8.63;5.95;;;;;;;12.44;100.00;96075.28;1034766;28;20479;-70
2022/08/24 00:58:27;;;;;;;8.35;5.88;;;;;;;12.39;100.00;96072.63;1042950;28;20025;-71
2022/08/24 00:59:02;;;;;;;15.43;6.10;;;;;;;12.44;100.00;96080.53;1037390;28;20037;-72
2022/08/24 00:59:37;;;;;;;8.70;5.60;;;;;;;12.41;100.00;96075.81;1038713;28;20045;-70
2022/08/24 01:00:20;;;;;;;8.75;5.10;;;;;;;12.40;100.00;96074.19;1038885;28;20104;-71
2022/08/24 01:00:56;;;;;;;16.02;5.75;;;;;;;12.38;100.00;96073.69;1038805;28;20038;-71
2022/08/24 01:01:27;;;;;;;10.45;5.95;;;;;;;12.39;100.00;96080.53;1034084;28;20108;-71
2022/08/24 01:01:57;;;;;;;12.40;6.72;;;;;;;12.31;100.00;96067.91;1038989;28;20116;-72
2022/08/24 01:02:30;;;;;;;7.32;5.72;;;;;;;12.36;100.00;96075.78;1038791;28;20134;-72
2022/08/24 01:03:04;;;;;;;7.28;5.53;;;;;;;12.34;100.00;96075.28;1030522;28;20034;-71
2022/08/24 01:03:36;;;;;;;7.13;5.47;;;;;;;12.34;100.00;96074.47;1031752;28;20038;-71
2022/08/24 01:04:11;;;;;;;8.27;5.72;;;;;;;12.32;100.00;96072.13;1034727;28;20268;-71
2022/08/24 01:04:58;;;;;;;9.85;6.18;;;;;;;12.35;100.00;96076.06;1034900;28;20049;-71
2022/08/24 01:05:30;;;;;;;12.20;5.80;;;;;;;12.30;100.00;96068.94;1038734;28;20029;-71
2022/08/24 01:06:01;;;;;;;8.32;5.95;;;;;;;12.36;100.00;96078.41;1038860;28;20022;-71
2022/08/24 01:06:32;;;;;;;9.68;5.63;;;;;;;12.36;100.00;96082.91;1042917;28;20060;-71
2022/08/24 01:07:03;;;;;;;9.75;5.85;;;;;;;12.36;100.00;96083.69;1038980;28;20030;-71
2022/08/24 01:07:34;;;;;;;6.85;5.80;;;;;;;12.36;100.00;96077.63;1043089;28;20418;-71
2022/08/24 01:08:06;;;;;;;5.93;5.10;;;;;;;12.31;100.00;96075.00;1038768;28;20029;-71
2022/08/24 01:08:37;;;;;;;6.80;5.30;;;;;;;12.29;100.00;96077.91;1038927;28;20060;-71
2022/08/24 01:09:07;;;;;;;7.97;6.07;;;;;;;12.32;100.00;96079.22;1038564;28;20143;-72
2022/08/24 01:09:37;;;;;;;6.30;5.70;;;;;;;12.31;100.00;96080.25;1042947;28;20036;-71
2022/08/24 01:10:10;;;;;;;8.52;6.10;;;;;;;12.30;100.00;96076.84;1042590;28;20017;-73
2022/08/24 01:10:46;;;;;;;6.30;5.70;;;;;;;12.30;100.00;96079.47;1042986;28;20652;-72
2022/08/24 01:11:19;;;;;;;10.10;6.47;;;;;;;12.30;100.00;96081.31;1031843;28;20029;-72
2022/08/24 01:11:50;;;;;;;9.40;6.22;;;;;;;12.25;100.00;96079.50;1034281;28;20108;-72
2022/08/24 01:12:20;;;;;;;6.57;5.75;;;;;;;12.28;100.00;96084.22;1038919;28;20029;-72
2022/08/24 01:12:53;;;;;;;7.72;6.07;;;;;;;12.27;100.00;96085.25;1043615;28;20033;-70
2022/08/24 01:13:24;;;;;;;11.82;6.00;;;;;;;12.25;100.00;96082.13;1038098;28;20118;-71
2022/08/24 01:13:54;;;;;;;6.32;5.60;;;;;;;12.26;100.00;96081.84;1035257;28;20257;-70
2022/08/24 01:14:25;;;;;;;9.07;6.00;;;;;;;12.19;100.00;96073.44;1031276;28;20026;-70
2022/08/24 01:14:56;;;;;;;11.07;6.32;;;;;;;12.23;100.00;96082.38;1034775;28;20041;-70
2022/08/24 01:15:27;;;;;;;7.05;5.78;;;;;;;12.20;100.00;96079.50;1042066;28;20045;-73
2022/08/24 01:16:00;;;;;;;7.15;6.20;;;;;;;12.21;100.00;96081.88;1041540;28;20660;-72
2022/08/24 01:19:02;;;;;;;7.40;6.50;;;;;;;12.13;100.00;96084.22;1038205;28;20352;-72
2022/08/24 01:19:47;;;;;;;9.25;6.45;;;;;;;12.08;100.00;96068.47;1040995;28;20272;-71
2022/08/24 01:20:18;;;;;;;9.85;6.25;;;;;;;12.11;100.00;96076.63;1038849;28;20017;-70
2022/08/24 01:20:57;;;;;;;9.30;5.93;;;;;;;12.04;100.00;96065.56;1042855;28;20271;-71
2022/08/24 01:21:33;;;;;;;6.63;6.00;;;;;;;12.12;100.00;96078.19;1038382;28;20481;-71
2022/08/24 01:22:32;;;;;;;7.28;5.80;;;;;;;12.13;100.00;96068.44;1042946;28;20267;-70
2022/08/24 01:23:02;;;;;;;7.47;6.25;;;;;;;12.13;100.00;96079.75;1039666;28;20287;-71
2022/08/24 01:23:40;;;;;;;7.40;6.50;;;;;;;12.14;100.00;96077.91;1042605;28;20067;-71
2022/08/24 01:24:11;;;;;;;6.97;6.28;;;;;;;12.12;100.00;96072.13;1046944;28;20556;-71
2022/08/24 01:24:41;;;;;;;6.78;5.88;;;;;;;12.09;100.00;96077.91;1039140;28;20025;-73
2022/08/24 01:25:12;;;;;;;7.90;6.25;;;;;;;12.12;100.00;96077.41;1030773;28;20554;-71
2022/08/24 01:25:42;;;;;;;7.22;6.05;;;;;;;12.10;100.00;96068.97;1037050;28;20055;-69
2022/08/24 01:26:17;;;;;;;6.50;5.80;;;;;;;12.16;100.00;96073.19;1038130;28;20767;-71
2022/08/24 01:26:48;;;;;;;7.47;6.70;;;;;;;12.19;100.00;96072.66;1038907;28;20907;-71
2022/08/24 01:27:18;;;;;;;6.88;6.18;;;;;;;12.20;100.00;96068.97;1038723;28;20264;-71
2022/08/24 01:27:49;;;;;;;10.32;6.28;;;;;;;12.16;100.00;96073.19;1038290;28;20048;-71
2022/08/24 01:28:20;;;;;;;7.90;6.15;;;;;;;12.18;100.00;96063.19;1042821;28;20031;-72
2022/08/24 01:28:52;;;;;;;8.18;6.40;;;;;;;12.15;100.00;96067.13;1045918;28;20028;-71
2022/08/24 01:29:25;;;;;;;10.48;6.28;;;;;;;12.19;100.00;96070.81;1043146;28;20016;-71
2022/08/24 01:29:56;;;;;;;6.72;5.80;;;;;;;12.20;100.00;96063.69;1038579;28;20049;-71
2022/08/24 01:30:27;;;;;;;11.50;6.13;;;;;;;12.20;100.00;96063.69;1030644;28;20507;-71
2022/08/24 01:30:57;;;;;;;11.18;6.30;;;;;;;12.23;100.00;96073.69;1034648;28;20045;-71
2022/08/24 01:31:28;;;;;;;8.75;6.13;;;;;;;12.23;100.00;96071.06;1034171;28;20041;-71
2022/08/24 01:31:58;;;;;;;11.15;5.80;;;;;;;12.22;100.00;96074.75;1036824;28;20026;-71
2022/08/24 01:32:29;;;;;;;15.13;7.30;;;;;;;12.16;100.00;96070.56;1047108;28;20029;-71
2022/08/24 01:33:02;;;;;;;11.65;6.15;;;;;;;12.22;100.00;96077.38;1041093;28;20115;-71
2022/08/24 01:33:32;;;;;;;8.88;6.35;;;;;;;12.19;100.00;96072.66;1040856;28;20511;-71
2022/08/24 01:34:03;;;;;;;9.45;6.07;;;;;;;12.18;100.00;96077.13;1046713;28;20259;-71
2022/08/24 01:34:33;;;;;;;20.83;6.72;;;;;;;12.15;100.00;96071.59;1046558;28;20044;-72
2022/08/24 01:35:05;;;;;;;9.52;6.25;;;;;;;12.07;100.00;96065.00;1042811;28;20048;-72
2022/08/24 01:35:37;;;;;;;9.75;7.13;;;;;;;12.12;100.00;96065.03;1047373;28;20029;-71
2022/08/24 01:36:22;;;;;;;9.02;6.57;;;;;;;12.02;100.00;96063.19;1051059;28;20726;-71
2022/08/24 01:36:54;;;;;;;10.98;6.38;;;;;;;12.00;100.00;96067.94;1044962;28;20794;-69
2022/08/24 01:37:25;;;;;;;12.85;6.70;;;;;;;11.97;100.00;96060.56;1047010;28;20013;-72
2022/08/24 01:37:57;;;;;;;7.25;6.32;;;;;;;12.02;100.00;96073.72;1044959;28;20025;-71
2022/08/24 01:38:27;;;;;;;7.95;6.35;;;;;;;12.03;100.00;96075.28;1033407;28;20018;-69
2022/08/24 01:39:01;;;;;;;6.88;6.18;;;;;;;12.02;100.00;96073.72;1023289;28;20130;-73
2022/08/24 01:39:35;;;;;;;6.80;5.95;;;;;;;12.02;100.00;96068.44;1031244;28;20118;-70
2022/08/24 01:40:06;;;;;;;7.18;6.07;;;;;;;12.00;100.00;96064.50;1035535;28;20268;-71
2022/08/24 01:40:49;;;;;;;6.88;6.18;;;;;;;12.06;100.00;96068.72;1032028;28;20309;-71
2022/08/24 01:41:20;;;;;;;7.82;6.22;;;;;;;12.06;100.00;96067.94;1037602;28;20650;-71
2022/08/24 01:41:50;;;;;;;10.10;6.63;;;;;;;12.02;100.00;96065.03;1037843;28;20275;-72
2022/08/24 01:42:21;;;;;;;6.93;6.22;;;;;;;12.07;100.00;96069.50;1043395;28;20482;-71
2022/08/24 01:42:51;;;;;;;8.07;6.07;;;;;;;12.05;100.00;96066.34;1046945;28;20024;-71
2022/08/24 01:43:23;;;;;;;7.85;6.53;;;;;;;12.04;100.00;96062.94;1031820;28;20034;-72
2022/08/24 01:43:53;;;;;;;6.85;6.15;;;;;;;12.02;100.00;96063.19;1035942;28;20546;-71
2022/08/24 01:44:25;;;;;;;7.70;6.60;;;;;;;11.95;100.00;96057.41;1038631;28;20271;-71
2022/08/24 01:44:55;;;;;;;7.55;6.07;;;;;;;11.98;100.00;96058.72;1044905;28;20071;-71
2022/08/24 01:45:26;;;;;;;7.50;6.03;;;;;;;12.02;100.00;96068.44;1030647;28;20021;-71
2022/08/24 01:45:56;;;;;;;7.53;6.63;;;;;;;12.03;100.00;96070.00;1038712;28;20018;-71
2022/08/24 01:46:27;;;;;;;8.25;5.75;;;;;;;12.03;100.00;96063.97;1038528;28;20029;-71
2022/08/24 01:46:57;;;;;;;9.35;6.18;;;;;;;12.02;100.00;96063.19;1034968;28;20761;-71
2022/08/24 01:47:28;;;;;;;12.05;6.75;;;;;;;12.02;100.00;96062.41;1038715;28;20033;-71
2022/08/24 01:47:58;;;;;;;7.60;5.93;;;;;;;12.03;100.00;96066.59;1032617;28;20023;-71
2022/08/24 01:48:29;;;;;;;6.70;6.00;;;;;;;11.97;100.00;96055.31;1038711;28;20029;-71
2022/08/24 01:49:00;;;;;;;7.68;6.32;;;;;;;11.97;100.00;96055.31;1042793;28;20025;-70
2022/08/24 01:49:32;;;;;;;7.78;6.40;;;;;;;11.99;100.00;96058.44;1038623;28;20611;-71
2022/08/24 01:50:03;;;;;;;8.82;6.18;;;;;;;11.98;100.00;96059.50;1037150;28;20026;-71
2022/08/24 01:50:33;;;;;;;7.72;6.53;;;;;;;12.00;100.00;96060.03;1032269;28;20777;-72
2022/08/24 01:51:04;;;;;;;7.15;6.43;;;;;;;11.98;100.00;96056.88;1032801;28;20030;-71
2022/08/24 01:51:34;;;;;;;8.98;6.38;;;;;;;11.98;100.00;96056.88;1034873;28;20029;-71
2022/08/24 01:52:05;;;;;;;6.78;5.90;;;;;;;11.99;100.00;96058.44;1033897;28;20053;-71
2022/08/24 01:52:37;;;;;;;8.50;6.43;;;;;;;11.98;100.00;96062.13;1038988;28;20450;-71
2022/08/24 01:53:08;;;;;;;11.98;6.32;;;;;;;11.97;100.00;96055.31;1039315;28;20048;-71
2022/08/24 01:53:38;;;;;;;6.75;6.13;;;;;;;11.97;100.00;96065.00;1042878;28;20363;-70
2022/08/24 01:54:09;;;;;;;7.38;6.40;;;;;;;11.91;100.00;96047.69;1038135;28;20030;-71
2022/08/24 01:54:40;;;;;;;7.68;6.60;;;;;;;11.95;100.00;96060.03;1046932;28;20495;-72
2022/08/24 01:55:12;;;;;;;9.13;6.10;;;;;;;11.93;100.00;96051.59;1046846;28;20091;-71
2022/08/24 01:55:43;;;;;;;7.65;6.50;;;;;;;11.93;100.00;96053.44;1041306;28;20376;-71
2022/08/24 01:56:14;;;;;;;8.48;6.63;;;;;;;11.92;100.00;96057.13;1042801;28;20275;-71
2022/08/24 01:56:44;;;;;;;8.57;6.15;;;;;;;11.91;100.00;96056.34;1039012;28;20057;-70
2022/08/24 01:57:15;;;;;;;7.97;6.90;;;;;;;11.89;100.00;96058.44;1037864;28;20651;-72
2022/08/24 01:57:45;;;;;;;8.00;6.50;;;;;;;11.91;100.00;96055.56;1038728;28;20021;-68
2022/08/24 01:58:16;;;;;;;9.23;6.53;;;;;;;11.88;100.00;96048.22;1042706;28;20058;-71
2022/08/24 01:58:46;;;;;;;6.45;5.82;;;;;;;11.89;100.00;96053.19;1034421;28;20033;-71
2022/08/24 01:59:18;;;;;;;7.22;6.53;;;;;;;11.88;100.00;96049.00;1042758;28;20017;-71
2022/08/24 01:59:48;;;;;;;8.88;6.88;;;;;;;11.89;100.00;96049.78;1038665;28;20107;-69
2022/08/24 02:00:19;;;;;;;8.40;6.60;;;;;;;11.88;100.00;96050.84;1042761;28;20925;-71
2022/08/24 02:00:49;;;;;;;7.95;6.72;;;;;;;11.86;100.00;96043.19;1042851;28;20029;-71
2022/08/24 02:01:20;;;;;;;8.90;6.38;;;;;;;11.88;100.00;96056.88;1041967;28;20577;-71
2022/08/24 02:01:52;;;;;;;8.07;6.97;;;;;;;11.88;100.00;96059.50;1042709;28;20017;-71
2022/08/24 02:02:25;;;;;;;6.47;5.88;;;;;;;11.88;100.00;96058.72;1046800;28;20036;-71
2022/08/24 02:02:55;;;;;;;7.25;6.28;;;;;;;11.83;100.00;96051.56;1041852;28;20302;-71
2022/08/24 02:03:26;;;;;;;12.10;6.18;;;;;;;11.86;100.00;96058.97;1042421;28;20268;-71
2022/08/24 02:03:59;;;;;;;7.53;6.40;;;;;;;11.85;100.00;96054.00;1035788;28;20033;-71
2022/08/24 02:04:32;;;;;;;8.75;6.60;;;;;;;11.79;100.00;96051.31;1038145;28;20076;-72
2022/08/24 02:05:03;;;;;;;7.13;6.25;;;;;;;11.84;100.00;96053.19;1037523;28;20275;-70
2022/08/24 02:05:34;;;;;;;7.15;6.28;;;;;;;11.81;100.00;96051.06;1039134;28;20278;-71
2022/08/24 02:06:04;;;;;;;7.10;6.40;;;;;;;11.82;100.00;96057.91;1038512;28;20032;-71
2022/08/24 02:06:35;;;;;;;7.88;6.25;;;;;;;11.81;100.00;96061.59;1038484;28;20042;-72
2022/08/24 02:07:08;;;;;;;10.50;7.15;;;;;;;11.83;100.00;96053.41;1034476;28;20026;-71
2022/08/24 02:07:38;;;;;;;7.97;6.28;;;;;;;11.82;100.00;96062.38;1037424;28;20056;-71
2022/08/24 02:08:09;;;;;;;7.47;6.45;;;;;;;11.80;100.00;96059.97;1038468;28;20272;-72
2022/08/24 02:08:40;;;;;;;6.50;5.90;;;;;;;11.81;100.00;96056.31;1038616;28;20056;-72
2022/08/24 02:09:10;;;;;;;8.63;5.97;;;;;;;11.81;100.00;96061.59;1041047;28;20481;-71
2022/08/24 02:09:43;;;;;;;7.97;6.07;;;;;;;11.79;100.00;96063.66;1045127;28;20275;-72
2022/08/24 02:10:14;;;;;;;7.43;6.28;;;;;;;11.80;100.00;96059.97;1051153;28;20032;-72
2022/08/24 02:10:44;;;;;;;8.43;6.47;;;;;;;11.77;100.00;96052.66;1045279;28;20305;-71
2022/08/24 02:11:15;;;;;;;6.63;5.93;;;;;;;11.83;100.00;96058.69;1041892;28;20052;-70
2022/08/24 02:11:46;;;;;;;8.98;6.80;;;;;;;11.83;100.00;96067.34;1042688;28;20056;-72
2022/08/24 02:12:17;;;;;;;9.77;6.72;;;;;;;11.83;100.00;96061.31;1038707;28;20553;-71
2022/08/24 02:12:56;;;;;;;6.50;5.90;;;;;;;11.82;100.00;96063.16;1041833;28;20299;-72
2022/08/24 02:13:27;;;;;;;14.50;6.95;;;;;;;11.80;100.00;96057.34;1041587;28;20029;-71
2022/08/24 02:13:58;;;;;;;13.13;6.88;;;;;;;11.79;100.00;96055.78;1044113;28;20768;-71
2022/08/24 02:14:28;;;;;;;8.27;6.40;;;;;;;11.80;100.00;96058.16;1045092;28;20263;-71
2022/08/24 02:15:01;;;;;;;8.70;6.38;;;;;;;11.80;100.00;96059.97;1046834;28;20082;-72
2022/08/24 02:15:38;;;;;;;11.15;6.25;;;;;;;11.75;100.00;96050.25;1046409;28;20107;-71
2022/08/24 02:16:09;;;;;;;8.65;6.78;;;;;;;11.75;100.00;96060.78;1041231;28;20554;-71
2022/08/24 02:16:39;;;;;;;8.77;6.57;;;;;;;11.70;100.00;96050.28;1040721;28;20323;-71
2022/08/24 02:17:10;;;;;;;7.85;6.68;;;;;;;11.72;100.00;96052.63;1042823;28;20429;-71
2022/08/24 02:17:41;;;;;;;9.90;6.47;;;;;;;11.72;100.00;96055.25;1041166;28;20077;-72
2022/08/24 02:18:11;;;;;;;11.07;6.95;;;;;;;11.71;100.00;96056.31;1039323;28;20044;-72
2022/08/24 02:18:42;;;;;;;9.45;6.60;;;;;;;11.72;100.00;96056.03;1038437;28;20033;-72
2022/08/24 02:19:13;;;;;;;14.85;7.25;;;;;;;11.72;100.00;96057.88;1042359;28;20060;-71
2022/08/24 02:19:43;;;;;;;25.83;7.95;;;;;;;11.69;100.00;96053.94;1038501;28;20037;-72
2022/08/24 02:20:14;;;;;;;9.48;7.22;;;;;;;11.71;100.00;96056.31;1038435;28;20021;-71
2022/08/24 02:20:45;;;;;;;47.05;7.97;;;;;;;11.71;100.00;96061.56;1030736;28;20030;-72
2022/08/24 02:21:15;;;;;;;13.38;7.10;;;;;;;11.67;100.00;96050.78;1038140;28;20863;-71
2022/08/24 02:21:46;;;;;;;13.50;7.43;;;;;;;11.74;100.00;96063.69;1034173;28;20034;-71
2022/08/24 02:22:16;;;;;;;12.10;6.57;;;;;;;11.69;100.00;96053.94;1034394;28;20095;-71
2022/08/24 02:22:48;;;;;;;14.23;7.45;;;;;;;11.74;100.00;96061.06;1041679;28;20059;-71
2022/08/24 02:23:19;;;;;;;15.43;6.53;;;;;;;11.78;100.00;96062.09;1042893;28;20064;-69
2022/08/24 02:23:49;;;;;;;13.30;7.22;;;;;;;11.70;100.00;96049.47;1050348;28;20563;-69
2022/08/24 02:24:20;;;;;;;13.20;7.47;;;;;;;11.75;100.00;96066.03;1041962;28;20043;-69
2022/08/24 02:24:50;;;;;;;12.07;7.03;;;;;;;11.74;100.00;96063.69;1034499;28;20116;-71
2022/08/24 02:25:22;;;;;;;9.10;7.22;;;;;;;11.70;100.00;96059.97;1038692;28;20045;-70
2022/08/24 02:25:53;;;;;;;10.55;6.93;;;;;;;11.65;100.00;96057.34;1038955;28;20026;-72
2022/08/24 02:26:24;;;;;;;8.50;7.00;;;;;;;11.67;100.00;96066.56;1039482;28;20362;-71
2022/08/24 02:26:54;;;;;;;10.75;7.47;;;;;;;11.64;100.00;96063.66;1044490;28;20287;-69
2022/08/24 02:27:25;;;;;;;9.40;6.85;;;;;;;11.66;100.00;96064.19;1038528;28;20036;-70
2022/08/24 02:27:57;;;;;;;8.10;6.80;;;;;;;11.59;100.00;96061.81;1040824;28;20537;-69
2022/08/24 02:28:27;;;;;;;8.63;6.78;;;;;;;11.59;100.00;96058.38;1038272;28;20025;-71
2022/08/24 02:28:58;;;;;;;16.30;7.03;;;;;;;11.61;100.00;96064.19;1038396;28;20307;-71
2022/08/24 02:29:28;;;;;;;8.40;6.68;;;;;;;11.60;100.00;96065.22;1038255;28;20099;-70
2022/08/24 02:29:59;;;;;;;9.20;7.13;;;;;;;11.59;100.00;96059.19;1035234;28;20377;-72
2022/08/24 02:30:29;;;;;;;11.38;7.18;;;;;;;11.60;100.00;96059.97;1038649;28;20075;-72
2022/08/24 02:31:01;;;;;;;11.60;6.72;;;;;;;11.58;100.00;96065.50;1037410;28;20067;-71
2022/08/24 02:31:32;;;;;;;8.88;6.93;;;;;;;11.59;100.00;96061.03;1030102;28;20025;-73